Time;durP1;ratioP1;P1;durP2;ratioP2;P2;SDS_P1;SDS_P2;PMS_P1;PMS_P2;Temp;Humidity;BMP_temperature;BMP_pressure;BME280_temperature;BME280_humidity;BME280_pressure;Samples;Min_cycle;Max_cycle;Signal;HPM_P1;HPM_P2
2022/03/13 00:02:13;;;;;;;11.30;7.60;;;7.60;84.40;;;;;;5035191;28;20057;-74
2022/03/13 00:04:39;;;;;;;10.63;7.97;;;7.70;84.80;;;;;;5034984;28;20124;-73
2022/03/13 00:07:18;;;;;;;11.98;8.18;;;7.50;85.10;;;;;;5036010;28;20128;-73
2022/03/13 00:09:47;;;;;;;12.18;8.25;;;7.50;85.60;;;;;;5035799;28;20112;-74
2022/03/13 00:12:14;;;;;;;11.60;7.93;;;7.50;85.00;;;;;;5035654;28;20474;-73
2022/03/13 00:14:43;;;;;;;11.30;7.75;;;7.40;85.00;;;;;;5018389;28;20041;-73
2022/03/13 00:17:16;;;;;;;11.13;8.00;;;7.40;85.10;;;;;;5036093;28;20103;-73
2022/03/13 00:19:42;;;;;;;10.05;7.75;;;7.40;85.10;;;;;;5036042;28;20053;-73
2022/03/13 00:22:10;;;;;;;13.73;8.63;;;7.30;85.50;;;;;;5035502;28;20481;-73
2022/03/13 00:24:36;;;;;;;10.60;7.65;;;7.30;85.90;;;;;;5035369;28;20088;-73
2022/03/13 00:27:02;;;;;;;11.75;7.53;;;7.60;86.00;;;;;;5035111;28;20045;-73
2022/03/13 00:29:29;;;;;;;12.70;7.68;;;7.30;85.90;;;;;;5034687;28;20050;-73
2022/03/13 00:31:55;;;;;;;11.20;7.30;;;7.20;85.60;;;;;;5035283;28;20088;-73
2022/03/13 00:34:20;;;;;;;13.85;8.10;;;7.20;85.50;;;;;;5035038;28;20096;-74
2022/03/13 00:36:46;;;;;;;12.68;8.05;;;7.20;85.60;;;;;;5035230;28;20044;-73
2022/03/13 00:39:12;;;;;;;10.65;7.75;;;7.20;85.60;;;;;;5035188;28;20092;-73
2022/03/13 00:41:38;;;;;;;12.38;9.05;;;7.10;85.60;;;;;;5017492;28;20049;-73
2022/03/13 00:44:07;;;;;;;11.32;8.05;;;7.10;85.90;;;;;;5033997;28;20393;-73
2022/03/13 00:46:33;;;;;;;13.00;8.60;;;7.10;85.90;;;;;;5035535;28;20038;-73
2022/03/13 00:49:00;;;;;;;13.38;8.20;;;7.00;86.30;;;;;;5034781;28;20041;-73
2022/03/13 00:51:26;;;;;;;13.07;8.15;;;7.00;86.70;;;;;;5034702;28;20136;-74
2022/03/13 00:53:51;;;;;;;13.55;8.27;;;7.00;86.90;;;;;;5034874;28;20064;-73
2022/03/13 00:56:17;;;;;;;11.35;7.90;;;6.90;86.90;;;;;;5033879;28;20132;-74
2022/03/13 00:58:43;;;;;;;12.85;8.18;;;6.90;86.90;;;;;;5034806;28;20076;-73
2022/03/13 01:01:11;;;;;;;14.30;8.30;;;6.90;86.90;;;;;;5034744;28;20045;-73
2022/03/13 01:03:37;;;;;;;14.25;8.70;;;6.90;86.80;;;;;;5034033;28;20378;-73
2022/03/13 01:06:08;;;;;;;13.25;7.50;;;6.80;87.30;;;;;;5035332;28;20037;-73
2022/03/13 01:08:35;;;;;;;12.77;7.30;;;7.00;87.10;;;;;;5033615;28;20057;-73
2022/03/13 01:11:02;;;;;;;13.55;7.78;;;6.80;86.60;;;;;;5034298;28;20436;-73
2022/03/13 01:13:29;;;;;;;13.15;8.27;;;6.90;86.20;;;;;;5033528;28;20390;-73
2022/03/13 01:16:09;;;;;;;12.48;8.65;;;6.90;86.50;;;;;;5034467;28;20121;-73
2022/03/13 01:18:39;;;;;;;10.70;7.70;;;6.50;86.00;;;;;;5033152;28;20049;-73
2022/03/13 01:21:05;;;;;;;11.20;7.95;;;6.80;86.00;;;;;;5035261;28;20049;-73
2022/03/13 01:23:31;;;;;;;11.13;7.85;;;6.80;85.90;;;;;;5017138;28;20045;-73
2022/03/13 01:26:21;;;;;;;12.57;8.20;;;6.80;85.80;;;;;;5033875;28;20041;-74
2022/03/13 01:28:48;;;;;;;11.70;8.77;;;6.80;85.70;;;;;;5034381;28;20161;-73
2022/03/13 01:31:14;;;;;;;9.38;7.63;;;6.80;86.00;;;;;;5032949;28;20060;-73
2022/03/13 01:33:40;;;;;;;11.82;7.97;;;6.90;86.20;;;;;;5033427;28;20045;-73
2022/03/13 01:36:05;;;;;;;12.70;8.43;;;6.80;85.80;;;;;;5032890;28;20042;-73
2022/03/13 01:38:33;;;;;;;11.02;7.80;;;6.80;85.70;;;;;;5016326;28;20094;-73
2022/03/13 01:40:59;;;;;;;11.27;8.27;;;7.30;85.90;;;;;;5033704;28;20486;-73
2022/03/13 01:43:25;;;;;;;11.68;8.52;;;6.40;85.30;;;;;;5034778;28;20048;-73
2022/03/13 01:45:52;;;;;;;10.27;8.02;;;6.80;86.20;;;;;;5032646;28;20033;-73
2022/03/13 01:48:17;;;;;;;11.88;8.32;;;6.70;85.80;;;;;;5033790;28;20045;-73
2022/03/13 01:50:43;;;;;;;11.65;7.93;;;6.70;85.80;;;;;;5033845;28;20041;-73
2022/03/13 01:53:09;;;;;;;11.38;8.85;;;6.70;85.90;;;;;;5032597;28;20131;-73
2022/03/13 01:55:35;;;;;;;11.52;8.20;;;6.80;86.00;;;;;;5034088;28;20099;-73
2022/03/13 01:58:00;;;;;;;10.05;7.45;;;6.70;86.00;;;;;;5034272;28;20529;-73
2022/03/13 02:00:27;;;;;;;11.23;8.43;;;6.70;86.00;;;;;;5032975;28;20061;-73
2022/03/13 02:02:52;;;;;;;11.63;8.50;;;6.70;85.70;;;;;;5032984;28;20540;-73
2022/03/13 02:05:35;;;;;;;10.70;8.02;;;6.80;86.20;;;;;;5033939;28;20045;-73
2022/03/13 02:08:11;;;;;;;11.80;8.20;;;6.60;86.20;;;;;;5033684;28;20095;-73
2022/03/13 02:10:37;;;;;;;12.52;8.57;;;6.60;86.20;;;;;;5034192;28;20048;-73
2022/03/13 02:13:02;;;;;;;9.55;7.85;;;6.60;86.30;;;;;;5033356;28;20049;-73
2022/03/13 02:15:32;;;;;;;11.82;7.50;;;6.80;86.50;;;;;;5032545;28;20369;-73
2022/03/13 02:18:01;;;;;;;12.15;8.52;;;6.60;86.10;;;;;;5032351;28;20057;-73
2022/03/13 02:20:27;;;;;;;11.15;8.55;;;6.60;86.10;;;;;;5033446;28;20453;-73
2022/03/13 02:23:00;;;;;;;11.50;8.55;;;6.80;86.70;;;;;;5033450;28;20046;-73
2022/03/13 02:25:31;;;;;;;12.23;8.50;;;6.60;86.70;;;;;;5032277;28;20045;-73
2022/03/13 02:27:58;;;;;;;11.50;8.80;;;6.60;86.70;;;;;;5033352;28;20062;-73
2022/03/13 02:30:26;;;;;;;14.18;9.02;;;7.00;86.60;;;;;;5033926;28;20057;-74
2022/03/13 02:32:54;;;;;;;12.00;8.70;;;6.80;86.80;;;;;;5032832;28;20056;-73
2022/03/13 02:35:20;;;;;;;13.65;9.00;;;6.70;86.60;;;;;;5032661;28;20054;-73
2022/03/13 02:37:48;;;;;;;11.52;8.40;;;6.60;86.40;;;;;;5032297;28;20477;-73
2022/03/13 02:40:22;;;;;;;11.73;8.73;;;6.80;86.50;;;;;;5033305;28;20056;-73
2022/03/13 02:42:51;;;;;;;12.50;8.73;;;6.60;86.70;;;;;;5032664;28;20065;-73
2022/03/13 02:45:37;;;;;;;15.07;8.13;;;6.60;86.80;;;;;;5033198;28;20050;-73
2022/03/13 02:48:06;;;;;;;12.02;8.82;;;6.60;87.10;;;;;;5033564;28;20053;-73
2022/03/13 02:50:32;;;;;;;12.27;8.63;;;6.50;87.00;;;;;;5033142;28;20059;-73
2022/03/13 02:52:58;;;;;;;11.95;8.07;;;6.60;87.30;;;;;;5032288;28;20054;-73
2022/03/13 02:55:24;;;;;;;13.35;8.50;;;6.50;87.20;;;;;;5033174;28;20509;-73
2022/03/13 02:57:50;;;;;;;12.38;8.07;;;6.60;87.50;;;;;;5033250;28;20048;-73
2022/03/13 03:00:17;;;;;;;12.52;8.27;;;6.70;87.70;;;;;;5032100;28;20049;-73
2022/03/13 03:02:43;;;;;;;12.77;8.30;;;6.60;87.60;;;;;;5032216;28;20136;-73
2022/03/13 03:05:09;;;;;;;14.93;9.38;;;6.60;87.80;;;;;;5033043;28;20041;-73
2022/03/13 03:07:36;;;;;;;11.45;9.00;;;6.60;88.00;;;;;;5033083;28;20457;-73
2022/03/13 03:10:04;;;;;;;11.40;8.68;;;6.60;88.70;;;;;;5033045;28;20048;-73
2022/03/13 03:12:30;;;;;;;12.82;8.70;;;6.60;89.10;;;;;;5033527;28;20052;-73
2022/03/13 03:14:55;;;;;;;12.00;9.15;;;6.60;89.40;;;;;;5036348;28;20125;-73
2022/03/13 03:17:21;;;;;;;11.40;8.38;;;6.70;89.40;;;;;;5036507;28;20099;-73
2022/03/13 03:19:47;;;;;;;12.93;8.90;;;6.50;88.90;;;;;;5036398;28;20076;-73
2022/03/13 03:22:14;;;;;;;12.10;8.88;;;6.50;89.30;;;;;;5037130;28;20041;-73
2022/03/13 03:24:40;;;;;;;11.55;8.43;;;6.50;89.20;;;;;;5036181;28;20482;-73
2022/03/13 03:27:06;;;;;;;11.82;7.75;;;6.50;89.50;;;;;;5036857;28;20132;-73
2022/03/13 03:29:31;;;;;;;11.38;7.57;;;6.40;89.40;;;;;;5036528;28;20068;-73
2022/03/13 03:31:58;;;;;;;11.07;8.23;;;6.50;88.80;;;;;;5036432;28;20057;-73
2022/03/13 03:34:26;;;;;;;13.15;8.45;;;6.60;88.60;;;;;;5036099;28;20529;-73
2022/03/13 03:36:59;;;;;;;13.23;8.68;;;6.50;88.60;;;;;;5036369;28;20057;-73
2022/03/13 03:39:26;;;;;;;11.30;8.15;;;6.50;88.90;;;;;;5035106;28;20046;-73
2022/03/13 03:41:54;;;;;;;11.95;8.40;;;6.60;89.30;;;;;;5036245;28;20056;-73
2022/03/13 03:44:20;;;;;;;12.32;8.43;;;6.50;89.80;;;;;;5036661;28;20045;-73
2022/03/13 03:46:47;;;;;;;11.85;8.80;;;6.40;89.70;;;;;;5035017;28;20049;-73
2022/03/13 03:49:14;;;;;;;10.25;8.57;;;6.30;89.90;;;;;;5035947;28;20110;-73
2022/03/13 03:51:40;;;;;;;11.00;8.80;;;7.00;90.20;;;;;;5034807;28;20500;-73
2022/03/13 03:54:07;;;;;;;11.65;8.68;;;6.40;90.10;;;;;;5034748;28;20489;-73
2022/03/13 03:56:34;;;;;;;11.48;8.27;;;6.40;90.00;;;;;;5035653;28;20485;-73
2022/03/13 03:59:00;;;;;;;13.05;8.75;;;6.60;90.10;;;;;;5035945;28;20045;-73
2022/03/13 04:01:26;;;;;;;13.05;8.57;;;6.30;90.10;;;;;;5035887;28;20053;-73
2022/03/13 04:03:52;;;;;;;12.40;8.60;;;6.10;90.20;;;;;;5018338;28;20128;-73
2022/03/13 04:06:19;;;;;;;12.57;8.52;;;6.20;90.20;;;;;;5034568;28;20046;-73
2022/03/13 04:08:46;;;;;;;14.10;9.13;;;6.30;90.20;;;;;;5035838;28;20497;-73
2022/03/13 04:11:12;;;;;;;11.85;8.55;;;6.10;90.40;;;;;;5035764;28;20057;-73
2022/03/13 04:13:38;;;;;;;11.43;8.55;;;6.10;90.50;;;;;;5035631;28;20056;-73
2022/03/13 04:16:08;;;;;;;11.38;8.57;;;6.20;90.40;;;;;;5034437;28;20049;-73
2022/03/13 04:18:37;;;;;;;11.82;8.50;;;6.20;90.30;;;;;;5017668;28;20501;-73
2022/03/13 04:21:05;;;;;;;10.82;7.97;;;6.10;90.30;;;;;;5035489;28;20490;-73
2022/03/13 04:23:33;;;;;;;11.73;8.90;;;6.10;90.10;;;;;;5035460;28;20060;-73
2022/03/13 04:25:59;;;;;;;12.02;7.68;;;6.10;90.00;;;;;;5034577;28;20049;-73
2022/03/13 04:28:25;;;;;;;11.48;8.60;;;6.10;90.10;;;;;;5035323;28;20139;-73
2022/03/13 04:30:53;;;;;;;11.55;8.30;;;6.00;90.10;;;;;;5035599;28;20479;-73
2022/03/13 04:33:21;;;;;;;13.60;8.48;;;5.90;90.20;;;;;;5035274;28;20084;-73
2022/03/13 04:35:47;;;;;;;12.40;8.70;;;6.00;90.30;;;;;;5034221;28;20115;-73
2022/03/13 04:38:12;;;;;;;13.27;8.55;;;5.80;90.40;;;;;;5034201;28;20049;-73
2022/03/13 04:40:38;;;;;;;11.82;8.40;;;5.90;90.30;;;;;;5018530;28;20057;-73
2022/03/13 04:43:04;;;;;;;12.82;8.45;;;5.90;90.30;;;;;;5035170;28;20053;-73
2022/03/13 04:45:30;;;;;;;11.20;8.63;;;5.80;90.20;;;;;;5035059;28;20050;-73
2022/03/13 04:47:55;;;;;;;14.00;9.23;;;6.00;90.40;;;;;;5035018;28;20398;-73
2022/03/13 04:50:21;;;;;;;12.30;8.50;;;5.80;90.40;;;;;;5035659;28;20045;-73
2022/03/13 04:52:47;;;;;;;11.85;8.57;;;5.70;90.50;;;;;;5034965;28;20048;-73
2022/03/13 04:55:13;;;;;;;12.82;8.65;;;5.70;90.50;;;;;;5034468;28;20057;-73
2022/03/13 04:57:39;;;;;;;10.77;8.13;;;5.70;90.40;;;;;;5034782;28;20056;-73
2022/03/13 05:00:05;;;;;;;12.43;8.70;;;5.70;90.40;;;;;;5034119;28;20053;-73
2022/03/13 05:02:31;;;;;;;12.20;8.20;;;5.60;90.30;;;;;;5034733;28;20113;-73
2022/03/13 05:04:59;;;;;;;11.48;8.18;;;5.60;90.20;;;;;;5034598;28;20398;-73
2022/03/13 05:07:27;;;;;;;10.88;8.10;;;5.70;90.40;;;;;;5034592;28;20045;-73
2022/03/13 05:09:53;;;;;;;10.73;7.80;;;6.10;90.10;;;;;;5034604;28;20046;-73
2022/03/13 05:12:21;;;;;;;10.90;8.35;;;5.60;90.00;;;;;;5033507;28;20132;-73
2022/03/13 05:14:47;;;;;;;12.43;7.82;;;5.50;89.70;;;;;;5033349;28;20042;-73
2022/03/13 05:17:13;;;;;;;12.15;8.23;;;5.50;89.60;;;;;;5032928;28;20386;-72
2022/03/13 05:19:39;;;;;;;12.65;8.65;;;5.50;89.50;;;;;;5033928;28;20041;-73
2022/03/13 05:22:04;;;;;;;11.25;8.52;;;5.50;89.60;;;;;;5033360;28;20434;-73
2022/03/13 05:24:30;;;;;;;10.32;7.28;;;5.60;89.70;;;;;;5033507;28;20128;-73
2022/03/13 05:26:56;;;;;;;10.75;8.02;;;5.50;89.50;;;;;;5033939;28;20048;-72
2022/03/13 05:29:21;;;;;;;13.55;8.63;;;5.40;89.40;;;;;;5034768;28;20045;-73
2022/03/13 05:31:47;;;;;;;10.95;8.05;;;5.40;89.70;;;;;;5033266;28;20046;-73
2022/03/13 05:34:13;;;;;;;10.95;8.32;;;5.80;90.00;;;;;;5032875;28;20132;-73
2022/03/13 05:36:39;;;;;;;11.90;7.85;;;5.40;89.70;;;;;;5034068;28;20049;-73
2022/03/13 05:39:05;;;;;;;10.65;7.60;;;5.10;89.60;;;;;;5034115;28;20042;-73
2022/03/13 05:41:33;;;;;;;11.82;7.93;;;5.30;89.40;;;;;;5034799;28;20115;-73
2022/03/13 05:43:59;;;;;;;10.50;8.15;;;5.30;89.30;;;;;;5033901;28;20056;-73
2022/03/13 05:46:24;;;;;;;9.43;7.13;;;5.70;89.80;;;;;;5032862;28;20123;-73
2022/03/13 05:48:50;;;;;;;13.02;8.35;;;5.20;89.90;;;;;;5033929;28;20477;-73
2022/03/13 05:51:16;;;;;;;12.40;7.38;;;5.30;90.00;;;;;;5032748;28;20053;-73
2022/03/13 05:53:41;;;;;;;12.02;7.68;;;5.20;89.80;;;;;;5034178;28;20100;-73
2022/03/13 05:56:07;;;;;;;9.77;7.72;;;5.20;89.60;;;;;;5034377;28;20517;-73
2022/03/13 05:58:33;;;;;;;9.55;7.28;;;6.00;90.00;;;;;;5033838;28;20119;-73
2022/03/13 06:01:05;;;;;;;10.55;7.10;;;5.70;89.70;;;;;;5032851;28;20124;-73
2022/03/13 06:03:32;;;;;;;10.17;7.90;;;5.40;89.40;;;;;;5033619;28;20400;-73
2022/03/13 06:06:00;;;;;;;11.35;7.40;;;4.90;88.90;;;;;;5016075;28;20052;-72
2022/03/13 06:08:26;;;;;;;11.00;7.78;;;5.10;88.60;;;;;;5033258;28;20093;-73
2022/03/13 06:10:51;;;;;;;10.57;7.47;;;5.30;88.70;;;;;;5034986;28;20088;-73
2022/03/13 06:13:18;;;;;;;11.15;7.82;;;5.40;88.80;;;;;;5033231;28;20061;-73
2022/03/13 06:15:43;;;;;;;10.32;6.93;;;5.20;88.40;;;;;;5032372;28;20057;-73
2022/03/13 06:18:10;;;;;;;11.43;8.02;;;5.10;87.80;;;;;;5033602;28;20123;-73
2022/03/13 06:20:36;;;;;;;11.73;8.02;;;5.20;88.20;;;;;;5032822;28;20064;-73
2022/03/13 06:23:03;;;;;;;10.88;7.75;;;5.30;88.20;;;;;;5033518;28;20057;-73
2022/03/13 06:25:29;;;;;;;11.40;7.72;;;5.80;88.10;;;;;;5033421;28;20046;-73
2022/03/13 06:27:56;;;;;;;9.63;7.80;;;5.30;87.60;;;;;;5033522;28;20057;-73
2022/03/13 06:30:22;;;;;;;10.07;6.90;;;6.00;87.90;;;;;;5033991;28;20095;-73
2022/03/13 06:32:50;;;;;;;11.65;7.65;;;5.70;87.00;;;;;;5032692;28;20087;-73
2022/03/13 06:35:18;;;;;;;9.73;6.47;;;6.60;86.80;;;;;;5033412;28;20116;-73
2022/03/13 06:37:44;;;;;;;9.38;6.72;;;5.40;85.80;;;;;;5033864;28;20132;-73
2022/03/13 06:40:12;;;;;;;10.13;6.63;;;5.50;85.20;;;;;;5033328;28;20058;-73
2022/03/13 06:42:38;;;;;;;11.10;7.25;;;5.50;85.10;;;;;;5033345;28;20405;-74
2022/03/13 06:45:05;;;;;;;9.55;7.05;;;5.40;85.20;;;;;;5033233;28;20045;-73
2022/03/13 06:47:31;;;;;;;9.52;7.22;;;5.60;85.60;;;;;;5033041;28;20046;-73
2022/03/13 06:49:57;;;;;;;9.18;6.55;;;5.70;85.80;;;;;;5037131;28;20053;-73
2022/03/13 06:52:22;;;;;;;9.43;6.70;;;6.30;85.80;;;;;;5037677;28;20046;-73
2022/03/13 06:54:48;;;;;;;10.52;6.88;;;5.70;85.10;;;;;;5037192;28;20134;-73
2022/03/13 06:57:18;;;;;;;10.15;6.43;;;5.80;84.90;;;;;;5037053;28;20489;-73
2022/03/13 06:59:44;;;;;;;9.75;7.05;;;5.80;84.70;;;;;;5019972;28;20056;-73
2022/03/13 07:02:13;;;;;;;10.63;7.13;;;5.90;84.50;;;;;;5036999;28;20045;-73
2022/03/13 07:04:40;;;;;;;9.77;6.47;;;6.00;84.30;;;;;;5036922;28;20045;-73
2022/03/13 07:07:06;;;;;;;10.85;6.75;;;6.00;84.60;;;;;;5036907;28;20045;-72
2022/03/13 07:09:32;;;;;;;8.15;6.68;;;6.20;84.60;;;;;;5035724;28;20052;-73
2022/03/13 07:11:58;;;;;;;9.40;6.45;;;6.10;83.50;;;;;;5037627;28;20046;-72
2022/03/13 07:14:24;;;;;;;8.73;6.35;;;6.10;83.60;;;;;;5037004;28;20046;-73
2022/03/13 07:16:51;;;;;;;12.48;6.15;;;6.10;83.50;;;;;;5036457;28;20401;-72
2022/03/13 07:19:16;;;;;;;10.80;6.70;;;6.20;83.70;;;;;;5036336;28;20148;-73
2022/03/13 07:21:43;;;;;;;9.98;6.53;;;6.20;83.40;;;;;;5036654;28;20128;-73
2022/03/13 07:24:10;;;;;;;8.27;6.20;;;6.30;83.30;;;;;;5035785;28;20159;-73
2022/03/13 07:26:35;;;;;;;9.27;5.75;;;6.30;83.00;;;;;;5036563;28;20050;-73
2022/03/13 07:29:02;;;;;;;7.95;5.82;;;6.30;82.50;;;;;;5037097;28;20076;-73
2022/03/13 07:31:31;;;;;;;9.38;6.40;;;6.40;82.10;;;;;;5036480;28;20095;-73
2022/03/13 07:33:57;;;;;;;11.27;6.72;;;6.50;82.10;;;;;;5037185;28;20041;-73
2022/03/13 07:36:23;;;;;;;10.25;5.95;;;6.50;81.50;;;;;;5036399;28;20048;-73
2022/03/13 07:38:50;;;;;;;7.55;6.10;;;6.60;81.20;;;;;;5036341;28;20045;-73
2022/03/13 07:41:15;;;;;;;10.18;6.47;;;6.60;80.90;;;;;;5035132;28;20045;-73
2022/03/13 07:43:41;;;;;;;10.07;6.57;;;6.60;80.70;;;;;;5036527;28;20366;-73
2022/03/13 07:46:07;;;;;;;9.13;6.40;;;6.60;80.70;;;;;;5034974;28;20076;-73
2022/03/13 07:48:34;;;;;;;8.60;6.38;;;6.60;80.70;;;;;;5018712;28;20058;-72
2022/03/13 07:51:01;;;;;;;9.07;6.70;;;6.80;80.30;;;;;;5035784;28;20509;-73
2022/03/13 07:53:29;;;;;;;9.18;6.70;;;6.80;79.90;;;;;;5036082;28;20120;-73
2022/03/13 07:55:55;;;;;;;10.52;6.15;;;6.80;79.90;;;;;;5035001;28;20056;-73
2022/03/13 07:58:21;;;;;;;8.68;6.20;;;6.80;79.80;;;;;;5035896;28;20053;-74
2022/03/13 08:00:47;;;;;;;7.65;5.88;;;7.30;79.90;;;;;;5034785;28;20053;-73
2022/03/13 08:03:17;;;;;;;10.68;6.80;;;6.90;79.70;;;;;;5034982;28;20057;-74
2022/03/13 08:05:43;;;;;;;9.50;6.32;;;7.00;79.60;;;;;;5036109;28;20099;-74
2022/03/13 08:08:09;;;;;;;8.18;5.82;;;7.10;79.50;;;;;;5034596;28;20554;-74
2022/03/13 08:10:34;;;;;;;8.38;6.10;;;7.00;79.50;;;;;;5018900;28;20049;-72
2022/03/13 08:13:00;;;;;;;8.82;6.22;;;7.10;78.80;;;;;;5035567;28;20046;-74
2022/03/13 08:15:26;;;;;;;8.68;6.30;;;7.20;78.70;;;;;;5036198;28;20520;-73
2022/03/13 08:17:52;;;;;;;11.02;7.70;;;7.30;78.80;;;;;;5035856;28;20588;-73
2022/03/13 08:20:18;;;;;;;11.73;7.95;;;7.20;78.80;;;;;;5035694;28;20042;-73
2022/03/13 08:22:44;;;;;;;11.70;8.93;;;7.20;79.00;;;;;;5035438;28;20130;-75
2022/03/13 08:25:18;;;;;;;12.52;8.43;;;7.20;79.10;;;;;;5035609;28;20045;-75
2022/03/13 08:27:43;;;;;;;14.13;8.68;;;7.20;79.60;;;;;;5035704;28;20057;-75
2022/03/13 08:30:11;;;;;;;11.25;7.97;;;7.40;80.50;;;;;;5035655;28;20050;-74
2022/03/13 08:32:38;;;;;;;11.20;7.13;;;7.30;80.10;;;;;;5034555;28;20041;-76
2022/03/13 08:35:07;;;;;;;17.73;12.98;;;7.40;79.70;;;;;;5034463;28;20556;-70
2022/03/13 08:37:32;;;;;;;9.27;6.82;;;7.40;79.20;;;;;;5035400;28;20040;-74
2022/03/13 08:39:58;;;;;;;9.65;6.53;;;7.90;79.30;;;;;;5035373;28;20041;-75
2022/03/13 08:42:24;;;;;;;14.88;10.82;;;7.60;78.90;;;;;;5034383;28;20095;-74
2022/03/13 08:44:49;;;;;;;12.55;8.95;;;8.20;78.90;;;;;;5035261;28;20100;-75
2022/03/13 08:47:15;;;;;;;10.48;6.40;;;7.80;78.40;;;;;;5035773;28;20069;-75
2022/03/13 08:49:41;;;;;;;9.10;5.75;;;7.80;78.70;;;;;;5035140;28;20098;-75
2022/03/13 08:52:07;;;;;;;8.27;6.30;;;7.90;77.30;;;;;;5017994;28;20181;-75
2022/03/13 08:54:32;;;;;;;9.60;6.40;;;7.90;76.90;;;;;;5034386;28;20041;-76
2022/03/13 08:56:58;;;;;;;9.23;6.82;;;8.00;76.70;;;;;;5035130;28;20052;-75
2022/03/13 08:59:24;;;;;;;9.40;6.28;;;8.10;76.40;;;;;;5035589;28;20359;-76
2022/03/13 09:01:50;;;;;;;10.40;6.38;;;8.20;76.40;;;;;;5034978;28;20052;-73
2022/03/13 09:04:16;;;;;;;10.88;7.10;;;8.30;76.30;;;;;;5034689;28;20041;-73
2022/03/13 09:06:43;;;;;;;8.63;6.47;;;8.60;76.40;;;;;;5034817;28;20394;-73
2022/03/13 09:09:10;;;;;;;10.73;7.35;;;8.50;76.50;;;;;;5033614;28;20457;-72
2022/03/13 09:11:36;;;;;;;9.82;7.25;;;8.60;75.90;;;;;;5033355;28;20060;-73
2022/03/13 09:14:03;;;;;;;9.23;6.30;;;8.70;75.60;;;;;;5034408;28;20505;-73
2022/03/13 09:16:32;;;;;;;9.02;6.75;;;8.80;75.40;;;;;;5033884;28;20116;-74
2022/03/13 09:18:58;;;;;;;9.38;6.82;;;8.80;74.90;;;;;;5034145;28;20050;-72
2022/03/13 09:21:24;;;;;;;9.48;6.75;;;8.90;74.90;;;;;;5034540;28;20119;-73
2022/03/13 09:23:50;;;;;;;11.43;7.10;;;8.90;74.70;;;;;;5033529;28;20128;-75
2022/03/13 09:26:15;;;;;;;9.40;6.22;;;9.00;74.10;;;;;;5033222;28;20393;-72
2022/03/13 09:28:41;;;;;;;9.07;6.50;;;9.10;74.20;;;;;;5034559;28;20097;-72
2022/03/13 09:31:08;;;;;;;11.85;6.70;;;9.20;74.00;;;;;;5034928;28;20041;-73
2022/03/13 09:33:34;;;;;;;11.05;8.20;;;9.30;73.80;;;;;;5033710;28;20045;-72
2022/03/13 09:36:00;;;;;;;9.77;6.53;;;9.30;73.70;;;;;;5033146;28;20048;-75
2022/03/13 09:38:25;;;;;;;10.13;6.35;;;9.40;73.50;;;;;;5033948;28;20055;-73
2022/03/13 09:40:51;;;;;;;9.32;6.35;;;9.40;73.40;;;;;;5016829;28;20052;-75
2022/03/13 09:43:20;;;;;;;10.48;6.95;;;9.50;73.50;;;;;;5034503;28;20055;-75
2022/03/13 09:45:46;;;;;;;8.60;6.50;;;9.50;73.90;;;;;;5016968;28;20054;-74
2022/03/13 09:48:15;;;;;;;8.25;6.10;;;9.50;73.70;;;;;;5034633;28;20089;-74
2022/03/13 09:50:42;;;;;;;9.32;6.50;;;9.60;73.50;;;;;;5033336;28;20092;-74
2022/03/13 09:53:08;;;;;;;9.75;6.80;;;9.70;73.60;;;;;;5032814;28;20045;-75
2022/03/13 09:55:34;;;;;;;10.35;6.90;;;9.70;73.60;;;;;;5033966;28;20444;-74
2022/03/13 09:57:59;;;;;;;9.82;6.45;;;9.80;73.50;;;;;;5032935;28;20041;-75
2022/03/13 10:00:26;;;;;;;9.38;6.95;;;9.90;73.00;;;;;;5033888;28;20063;-75
2022/03/13 10:02:54;;;;;;;9.05;6.60;;;10.00;72.80;;;;;;5033019;28;20441;-72
2022/03/13 10:05:22;;;;;;;9.23;6.35;;;9.90;73.00;;;;;;5033807;28;20529;-73
2022/03/13 10:07:59;;;;;;;8.75;6.60;;;10.10;73.00;;;;;;5033778;28;20049;-75
2022/03/13 10:10:45;;;;;;;8.65;6.40;;;10.20;72.30;;;;;;5034202;28;20045;-75
2022/03/13 10:13:16;;;;;;;10.23;7.45;;;10.20;72.40;;;;;;5033751;28;20482;-75
2022/03/13 10:15:47;;;;;;;9.95;7.05;;;10.30;71.60;;;;;;5033548;28;20056;-74
2022/03/13 10:18:19;;;;;;;9.25;6.72;;;10.40;71.10;;;;;;5032030;28;20494;-74
2022/03/13 10:20:46;;;;;;;10.02;7.40;;;10.50;71.00;;;;;;5033488;28;20063;-74
2022/03/13 10:23:16;;;;;;;9.88;6.78;;;10.50;71.00;;;;;;5032679;28;20091;-74
2022/03/13 10:25:43;;;;;;;10.18;6.55;;;10.60;70.70;;;;;;5033524;28;20486;-74
2022/03/13 10:28:17;;;;;;;9.98;7.28;;;10.70;70.30;;;;;;5033596;28;20050;-74
2022/03/13 10:30:43;;;;;;;;;;;10.80;70.20;;;;;;5032839;28;20137;-75
2022/03/13 10:33:09;;;;;;;9.85;7.18;;;10.90;71.70;;;;;;5032847;28;19928;-74
2022/03/13 10:35:36;;;;;;;9.00;6.68;;;10.90;70.40;;;;;;5034324;28;20041;-75
2022/03/13 10:38:22;;;;;;;9.88;7.15;;;11.00;70.00;;;;;;5034338;28;20436;-74
2022/03/13 10:40:56;;;;;;;11.75;7.88;;;11.10;69.90;;;;;;5033118;28;20049;-74
2022/03/13 10:43:26;;;;;;;11.25;7.22;;;11.10;69.70;;;;;;5034369;28;20053;-74
2022/03/13 10:45:54;;;;;;;9.85;6.78;;;11.10;69.20;;;;;;5033436;28;20037;-74
2022/03/13 10:48:30;;;;;;;10.70;7.88;;;11.20;68.80;;;;;;5032204;28;20041;-74
2022/03/13 10:50:58;;;;;;;9.65;7.10;;;11.20;69.20;;;;;;5031709;28;20048;-72
2022/03/13 10:53:25;;;;;;;9.93;7.82;;;11.20;69.40;;;;;;5032524;28;20176;-73
2022/03/13 10:56:10;;;;;;;9.23;6.97;;;11.30;69.70;;;;;;5031517;28;20049;-74
2022/03/13 10:58:42;;;;;;;9.35;7.20;;;11.20;69.90;;;;;;5032192;28;20041;-73
2022/03/13 11:01:16;;;;;;;11.52;7.22;;;11.30;69.70;;;;;;5033193;28;20175;-72
2022/03/13 11:04:04;;;;;;;10.13;6.93;;;11.30;70.10;;;;;;5032497;28;20446;-73
2022/03/13 11:06:30;;;;;;;9.50;6.85;;;11.30;69.80;;;;;;5032562;28;20116;-72
2022/03/13 11:08:56;;;;;;;9.15;7.18;;;11.40;68.90;;;;;;5014730;28;20092;-72
2022/03/13 11:11:27;;;;;;;9.85;7.57;;;11.50;69.10;;;;;;5030995;28;20057;-72
2022/03/13 11:13:56;;;;;;;10.63;7.18;;;11.60;68.70;;;;;;5031972;28;20171;-72
2022/03/13 11:16:29;;;;;;;9.02;7.10;;;11.60;68.30;;;;;;5032202;28;20049;-72
2022/03/13 11:19:01;;;;;;;11.50;7.38;;;11.60;68.20;;;;;;5032527;28;20482;-72
2022/03/13 11:21:27;;;;;;;9.38;7.18;;;11.60;67.90;;;;;;5032953;28;20048;-72
2022/03/13 11:23:54;;;;;;;13.60;7.57;;;11.70;67.70;;;;;;5032081;28;20054;-73
2022/03/13 11:26:23;;;;;;;8.27;7.15;;;11.70;67.50;;;;;;5032019;28;20041;-72
2022/03/13 11:28:53;;;;;;;10.60;7.65;;;11.70;67.50;;;;;;5031136;28;20054;-72
2022/03/13 11:31:35;;;;;;;10.25;7.40;;;11.80;67.10;;;;;;5032344;28;20056;-73
2022/03/13 11:34:21;;;;;;;10.13;7.28;;;11.80;66.90;;;;;;5033465;28;20124;-73
2022/03/13 11:36:49;;;;;;;10.13;7.93;;;11.80;66.70;;;;;;5036421;28;20050;-74
2022/03/13 11:39:26;;;;;;;13.65;8.23;;;11.80;66.30;;;;;;5034483;28;20379;-73
2022/03/13 11:41:53;;;;;;;9.18;7.20;;;11.70;66.40;;;;;;5034875;28;20068;-74
2022/03/13 11:44:19;;;;;;;9.60;6.97;;;11.70;66.40;;;;;;5036386;28;20089;-73
2022/03/13 11:46:47;;;;;;;11.20;7.18;;;11.70;66.10;;;;;;5034821;28;20175;-73
2022/03/13 11:49:17;;;;;;;10.70;7.55;;;11.70;65.70;;;;;;5035446;28;20552;-72
2022/03/13 11:51:46;;;;;;;11.43;7.65;;;11.70;65.80;;;;;;5034330;28;20061;-73
2022/03/13 11:54:15;;;;;;;9.45;7.38;;;11.70;65.40;;;;;;5036084;28;20041;-73
2022/03/13 11:56:49;;;;;;;10.57;7.82;;;11.70;65.50;;;;;;5035288;28;20059;-72
2022/03/13 11:59:19;;;;;;;10.43;7.72;;;11.70;65.20;;;;;;5035276;28;20128;-74
2022/03/13 12:01:46;;;;;;;10.52;7.88;;;11.80;65.40;;;;;;5034949;28;20132;-73
2022/03/13 12:04:14;;;;;;;11.95;7.60;;;11.80;65.00;;;;;;5035214;28;20137;-73
2022/03/13 12:06:48;;;;;;;9.55;7.07;;;11.90;64.90;;;;;;5035192;28;20133;-73
2022/03/13 12:09:16;;;;;;;10.40;7.70;;;11.90;64.40;;;;;;5034109;28;20155;-73
2022/03/13 12:11:46;;;;;;;13.15;8.15;;;11.10;63.70;;;;;;5033888;28;20053;-73
2022/03/13 12:14:14;;;;;;;11.90;7.72;;;12.00;64.80;;;;;;5034286;28;20119;-73
2022/03/13 12:16:41;;;;;;;11.30;7.95;;;12.00;64.40;;;;;;5035230;28;20084;-73
2022/03/13 12:19:08;;;;;;;12.70;7.72;;;12.00;64.30;;;;;;5033783;28;20123;-72
2022/03/13 12:21:34;;;;;;;8.70;7.40;;;12.00;64.40;;;;;;5035173;28;20560;-72
2022/03/13 12:24:18;;;;;;;9.98;7.47;;;12.10;63.80;;;;;;5035451;28;20124;-72
2022/03/13 12:26:50;;;;;;;10.70;7.43;;;12.10;63.50;;;;;;5034798;28;20042;-72
2022/03/13 12:29:18;;;;;;;9.98;7.25;;;12.10;63.20;;;;;;5035252;28;20057;-73
2022/03/13 12:31:49;;;;;;;10.98;7.68;;;12.20;63.00;;;;;;5035136;28;20132;-72
2022/03/13 12:34:24;;;;;;;11.75;7.28;;;12.20;62.90;;;;;;5033648;28;20107;-73
2022/03/13 12:36:50;;;;;;;9.85;7.45;;;12.20;62.90;;;;;;5034682;28;20053;-73
2022/03/13 12:39:16;;;;;;;10.50;7.47;;;12.30;63.00;;;;;;5035289;28;20049;-72
2022/03/13 12:41:54;;;;;;;9.45;7.45;;;12.40;62.20;;;;;;5017112;28;20057;-73
2022/03/13 12:44:22;;;;;;;10.93;7.72;;;12.50;61.60;;;;;;5033550;28;20045;-72
2022/03/13 12:46:52;;;;;;;11.25;7.38;;;12.60;61.10;;;;;;5033549;28;20493;-72
2022/03/13 12:49:32;;;;;;;10.85;7.60;;;12.60;60.40;;;;;;5033691;28;20498;-73
2022/03/13 12:51:59;;;;;;;12.68;8.23;;;12.70;60.80;;;;;;5034409;28;20061;-73